Airport ID:KMHV
Update Time (UTC):19/12/2018 08:33
Wind Speed (Knots):5
Wind Direction (Magnetic):280
Temperature (°C):5
Dew Point (°C):1
Humidity (%):74
Altimeter (inHg):30.25
Density Altitude (Feet):
Visibility (Miles):10+
Clouds (Hundreds of feet):CLR
Present Weather:
METAR:METAR KMHV 190820Z AUTO 30005KT 10SM CLR 06/01 A3026 RMK A01

The data displayed is for advisory purposes only and is not to be used for flight planning or operations.

This page is not automatically refreshed. Reload the page to see current data.